sensor_id;sensor_type;location;lat;lon;timestamp;pressure;altitude;pressure_sealevel;temperature;humidity
73748;BME280;62056;52.130;5.428;2023-11-22T00:00:18;103030.75;;;4.93;88.33
73748;BME280;62056;52.130;5.428;2023-11-22T00:02:47;103034.59;;;4.90;88.16
73748;BME280;62056;52.130;5.428;2023-11-22T00:05:14;103035.81;;;4.88;87.07
73748;BME280;62056;52.130;5.428;2023-11-22T00:07:41;103027.28;;;4.85;87.58
73748;BME280;62056;52.130;5.428;2023-11-22T00:10:08;103027.28;;;4.85;89.66
73748;BME280;62056;52.130;5.428;2023-11-22T00:12:35;103030.72;;;4.86;89.10
73748;BME280;62056;52.130;5.428;2023-11-22T00:15:06;103038.00;;;4.84;88.95
73748;BME280;62056;52.130;5.428;2023-11-22T00:17:34;103043.28;;;4.84;88.07
73748;BME280;62056;52.130;5.428;2023-11-22T00:20:01;103066.00;;;4.85;88.92
73748;BME280;62056;52.130;5.428;2023-11-22T00:22:32;103062.56;;;4.84;89.00
73748;BME280;62056;52.130;5.428;2023-11-22T00:24:59;103047.13;;;4.81;88.43
73748;BME280;62056;52.130;5.428;2023-11-22T00:27:28;103058.84;;;4.79;87.92
73748;BME280;62056;52.130;5.428;2023-11-22T00:29:56;103063.50;;;4.77;87.79
73748;BME280;62056;52.130;5.428;2023-11-22T00:32:24;103067.97;;;4.76;88.42
73748;BME280;62056;52.130;5.428;2023-11-22T00:34:51;103073.25;;;4.76;90.49
73748;BME280;62056;52.130;5.428;2023-11-22T00:37:18;103065.34;;;4.76;91.11
73748;BME280;62056;52.130;5.428;2023-11-22T00:39:45;103067.16;;;4.76;89.88
73748;BME280;62056;52.130;5.428;2023-11-22T00:42:11;103062.69;;;4.76;89.47
73748;BME280;62056;52.130;5.428;2023-11-22T00:44:38;103064.91;;;4.73;87.57
73748;BME280;62056;52.130;5.428;2023-11-22T00:47:04;103066.72;;;4.72;90.84
73748;BME280;62056;52.130;5.428;2023-11-22T00:49:32;103061.84;;;4.69;91.74
73748;BME280;62056;52.130;5.428;2023-11-22T00:52:00;103061.22;;;4.67;90.90
73748;BME280;62056;52.130;5.428;2023-11-22T00:54:29;103063.88;;;4.67;90.59
73748;BME280;62056;52.130;5.428;2023-11-22T00:56:56;103059.41;;;4.68;90.42
73748;BME280;62056;52.130;5.428;2023-11-22T00:59:23;103073.78;;;4.65;90.75
73748;BME280;62056;52.130;5.428;2023-11-22T01:01:49;103082.88;;;4.62;90.64
73748;BME280;62056;52.130;5.428;2023-11-22T01:04:16;103082.25;;;4.60;92.09
73748;BME280;62056;52.130;5.428;2023-11-22T01:06:43;103091.34;;;4.58;91.52
73748;BME280;62056;52.130;5.428;2023-11-22T01:09:10;103095.81;;;4.57;91.01
73748;BME280;62056;52.130;5.428;2023-11-22T01:11:40;103106.75;;;4.54;91.94
73748;BME280;62056;52.130;5.428;2023-11-22T01:14:07;103105.69;;;4.49;91.90
73748;BME280;62056;52.130;5.428;2023-11-22T01:16:37;103116.59;;;4.45;91.83
73748;BME280;62056;52.130;5.428;2023-11-22T01:19:03;103133.59;;;4.43;91.36
73748;BME280;62056;52.130;5.428;2023-11-22T01:21:30;103125.44;;;4.38;91.22
73748;BME280;62056;52.130;5.428;2023-11-22T01:23:57;103131.88;;;4.35;89.39
73748;BME280;62056;52.130;5.428;2023-11-22T01:26:24;103131.88;;;4.35;89.29
73748;BME280;62056;52.130;5.428;2023-11-22T01:28:51;103131.47;;;4.32;90.06
73748;BME280;62056;52.130;5.428;2023-11-22T01:31:18;103136.75;;;4.32;91.00
73748;BME280;62056;52.130;5.428;2023-11-22T01:33:48;103137.28;;;4.27;92.55
73748;BME280;62056;52.130;5.428;2023-11-22T01:36:14;103141.31;;;4.23;92.62
73748;BME280;62056;52.130;5.428;2023-11-22T01:38:45;103139.84;;;4.20;92.44
73748;BME280;62056;52.130;5.428;2023-11-22T01:41:13;103134.34;;;4.15;91.43
73748;BME280;62056;52.130;5.428;2023-11-22T01:43:40;103139.97;;;4.12;91.08
73748;BME280;62056;52.130;5.428;2023-11-22T01:46:10;103141.59;;;4.13;92.53
73748;BME280;62056;52.130;5.428;2023-11-22T01:48:41;103137.34;;;4.12;94.94
73748;BME280;62056;52.130;5.428;2023-11-22T01:51:08;103132.44;;;4.09;94.38
73748;BME280;62056;52.130;5.428;2023-11-22T01:53:35;103134.44;;;4.07;93.41
73748;BME280;62056;52.130;5.428;2023-11-22T01:56:02;103131.19;;;4.05;93.57
73748;BME280;62056;52.130;5.428;2023-11-22T01:58:29;103139.25;;;4.03;92.96
73748;BME280;62056;52.130;5.428;2023-11-22T02:00:58;103127.13;;;4.02;91.62
73748;BME280;62056;52.130;5.428;2023-11-22T02:03:25;103133.38;;;4.01;91.80
73748;BME280;62056;52.130;5.428;2023-11-22T02:05:53;103136.00;;;4.01;91.30
73748;BME280;62056;52.130;5.428;2023-11-22T02:08:20;103137.81;;;4.01;89.85
73748;BME280;62056;52.130;5.428;2023-11-22T02:10:59;103142.47;;;3.99;90.62
73748;BME280;62056;52.130;5.428;2023-11-22T02:13:29;103138.00;;;3.99;90.14
73748;BME280;62056;52.130;5.428;2023-11-22T02:15:56;103143.44;;;3.98;91.84
73748;BME280;62056;52.130;5.428;2023-11-22T02:18:26;103138.19;;;3.98;90.76
73748;BME280;62056;52.130;5.428;2023-11-22T02:20:53;103139.84;;;3.99;92.15
73748;BME280;62056;52.130;5.428;2023-11-22T02:23:19;103146.09;;;3.98;92.13
73748;BME280;62056;52.130;5.428;2023-11-22T02:25:46;103150.53;;;3.97;92.21
73748;BME280;62056;52.130;5.428;2023-11-22T02:28:13;103144.28;;;3.98;92.63
73748;BME280;62056;52.130;5.428;2023-11-22T02:30:40;103141.38;;;3.93;91.96
73748;BME280;62056;52.130;5.428;2023-11-22T02:33:08;103140.75;;;3.91;92.58
73748;BME280;62056;52.130;5.428;2023-11-22T02:35:35;103136.50;;;3.90;92.55
73748;BME280;62056;52.130;5.428;2023-11-22T02:38:02;103135.88;;;3.88;91.71
73748;BME280;62056;52.130;5.428;2023-11-22T02:40:29;103137.88;;;3.86;92.52
73748;BME280;62056;52.130;5.428;2023-11-22T02:42:55;103129.69;;;3.81;92.60
73748;BME280;62056;52.130;5.428;2023-11-22T02:45:28;103133.69;;;3.77;91.82
73748;BME280;62056;52.130;5.428;2023-11-22T02:47:55;103128.81;;;3.74;92.00
73748;BME280;62056;52.130;5.428;2023-11-22T02:50:22;103138.25;;;3.68;93.45
73748;BME280;62056;52.130;5.428;2023-11-22T02:52:48;103132.53;;;3.64;92.34
73748;BME280;62056;52.130;5.428;2023-11-22T02:55:15;103122.38;;;3.61;92.49
73748;BME280;62056;52.130;5.428;2023-11-22T02:57:42;103122.94;;;3.57;91.77
73748;BME280;62056;52.130;5.428;2023-11-22T03:00:09;103121.50;;;3.54;92.98
73748;BME280;62056;52.130;5.428;2023-11-22T03:02:41;103112.13;;;3.52;92.13
73748;BME280;62056;52.130;5.428;2023-11-22T03:05:09;103118.56;;;3.49;91.91
73748;BME280;62056;52.130;5.428;2023-11-22T03:07:39;103127.84;;;3.45;90.89
73748;BME280;62056;52.130;5.428;2023-11-22T03:10:07;103124.75;;;3.41;91.32
73748;BME280;62056;52.130;5.428;2023-11-22T03:12:34;103132.63;;;3.41;91.90
73748;BME280;62056;52.130;5.428;2023-11-22T03:15:01;103133.19;;;3.37;91.42
73748;BME280;62056;52.130;5.428;2023-11-22T03:17:28;103141.44;;;3.34;91.55
73748;BME280;62056;52.130;5.428;2023-11-22T03:19:58;103153.13;;;3.31;91.77
73748;BME280;62056;52.130;5.428;2023-11-22T03:22:25;103152.50;;;3.29;92.58
73748;BME280;62056;52.130;5.428;2023-11-22T03:24:52;103162.41;;;3.27;92.02
73748;BME280;62056;52.130;5.428;2023-11-22T03:27:19;103165.38;;;3.24;91.92
73748;BME280;62056;52.130;5.428;2023-11-22T03:29:49;103164.56;;;3.23;92.62
73748;BME280;62056;52.130;5.428;2023-11-22T03:32:16;103169.19;;;3.21;93.30
73748;BME280;62056;52.130;5.428;2023-11-22T03:34:43;103178.25;;;3.19;91.87
73748;BME280;62056;52.130;5.428;2023-11-22T03:37:10;103186.50;;;3.16;91.69
73748;BME280;62056;52.130;5.428;2023-11-22T03:39:37;103197.19;;;3.14;91.73
73748;BME280;62056;52.130;5.428;2023-11-22T03:42:04;103202.44;;;3.14;92.10
73748;BME280;62056;52.130;5.428;2023-11-22T03:44:32;103199.81;;;3.14;92.86
73748;BME280;62056;52.130;5.428;2023-11-22T03:46:59;103203.44;;;3.13;92.32
73748;BME280;62056;52.130;5.428;2023-11-22T03:49:26;103203.63;;;3.12;92.81
73748;BME280;62056;52.130;5.428;2023-11-22T03:51:53;103211.69;;;3.10;92.56
73748;BME280;62056;52.130;5.428;2023-11-22T03:54:20;103217.94;;;3.09;92.65
73748;BME280;62056;52.130;5.428;2023-11-22T03:56:47;103220.56;;;3.09;91.67
73748;BME280;62056;52.130;5.428;2023-11-22T03:59:13;103226.81;;;3.08;92.25
73748;BME280;62056;52.130;5.428;2023-11-22T04:01:40;103216.50;;;3.07;91.70
73748;BME280;62056;52.130;5.428;2023-11-22T04:04:07;103233.88;;;3.08;92.25
73748;BME280;62056;52.130;5.428;2023-11-22T04:06:36;103241.94;;;3.06;93.17
73748;BME280;62056;52.130;5.428;2023-11-22T04:09:03;103241.94;;;3.06;92.73
73748;BME280;62056;52.130;5.428;2023-11-22T04:11:30;103241.31;;;3.04;91.56
73748;BME280;62056;52.130;5.428;2023-11-22T04:13:57;103243.13;;;3.03;92.50
73748;BME280;62056;52.130;5.428;2023-11-22T04:16:24;103249.19;;;3.04;92.93
73748;BME280;62056;52.130;5.428;2023-11-22T04:18:51;103252.84;;;3.03;91.38
73748;BME280;62056;52.130;5.428;2023-11-22T04:21:18;103251.66;;;3.06;92.41
73748;BME280;62056;52.130;5.428;2023-11-22T04:23:45;103240.78;;;3.09;92.54
73748;BME280;62056;52.130;5.428;2023-11-22T04:26:12;103243.22;;;3.10;92.24
73748;BME280;62056;52.130;5.428;2023-11-22T04:28:38;103247.50;;;3.11;92.48
73748;BME280;62056;52.130;5.428;2023-11-22T04:31:05;103258.19;;;3.10;91.82
73748;BME280;62056;52.130;5.428;2023-11-22T04:33:31;103251.47;;;3.07;92.06
73748;BME280;62056;52.130;5.428;2023-11-22T04:35:58;103262.00;;;3.07;93.02
73748;BME280;62056;52.130;5.428;2023-11-22T04:38:25;103266.44;;;3.07;92.92
73748;BME280;62056;52.130;5.428;2023-11-22T04:40:52;103260.34;;;3.06;93.67
73748;BME280;62056;52.130;5.428;2023-11-22T04:43:18;103268.25;;;3.06;93.78
73748;BME280;62056;52.130;5.428;2023-11-22T04:45:46;103259.72;;;3.04;94.68
73748;BME280;62056;52.130;5.428;2023-11-22T04:48:13;103260.88;;;3.01;94.61
73748;BME280;62056;52.130;5.428;2023-11-22T04:50:42;103254.81;;;3.01;93.74
73748;BME280;62056;52.130;5.428;2023-11-22T04:53:12;103255.63;;;3.01;94.08
73748;BME280;62056;52.130;5.428;2023-11-22T04:55:39;103253.00;;;3.01;93.57
73748;BME280;62056;52.130;5.428;2023-11-22T04:58:06;103255.78;;;3.00;93.65
73748;BME280;62056;52.130;5.428;2023-11-22T05:00:33;103250.72;;;2.98;93.43
73748;BME280;62056;52.130;5.428;2023-11-22T05:02:59;103242.84;;;2.98;93.42
73748;BME280;62056;52.130;5.428;2023-11-22T05:05:26;103250.09;;;2.96;93.45
73748;BME280;62056;52.130;5.428;2023-11-22T05:07:53;103242.38;;;2.95;93.52
73748;BME280;62056;52.130;5.428;2023-11-22T05:10:19;103241.72;;;2.93;93.46
73748;BME280;62056;52.130;5.428;2023-11-22T05:12:46;103245.16;;;2.93;92.28
73748;BME280;62056;52.130;5.428;2023-11-22T05:15:13;103239.09;;;2.93;93.18
73748;BME280;62056;52.130;5.428;2023-11-22T05:17:40;103247.00;;;2.93;93.40
73748;BME280;62056;52.130;5.428;2023-11-22T05:20:08;103243.56;;;2.92;93.67
73748;BME280;62056;52.130;5.428;2023-11-22T05:22:37;103240.13;;;2.92;93.49
73748;BME280;62056;52.130;5.428;2023-11-22T05:25:04;103249.63;;;2.93;93.64
73748;BME280;62056;52.130;5.428;2023-11-22T05:27:33;103252.25;;;2.93;93.95
73748;BME280;62056;52.130;5.428;2023-11-22T05:29:59;103238.28;;;2.92;93.92
73748;BME280;62056;52.130;5.428;2023-11-22T05:32:28;103235.50;;;2.94;93.97
73748;BME280;62056;52.130;5.428;2023-11-22T05:34:55;103244.00;;;2.96;94.09
73748;BME280;62056;52.130;5.428;2023-11-22T05:37:22;103239.59;;;2.96;94.28
73748;BME280;62056;52.130;5.428;2023-11-22T05:39:50;103240.38;;;2.97;93.48
73748;BME280;62056;52.130;5.428;2023-11-22T05:42:17;103251.72;;;2.97;93.48
73748;BME280;62056;52.130;5.428;2023-11-22T05:44:44;103260.41;;;2.98;94.07
73748;BME280;62056;52.130;5.428;2023-11-22T05:47:11;103261.06;;;3.00;93.88
73748;BME280;62056;52.130;5.428;2023-11-22T05:49:40;103264.53;;;3.00;94.19
73748;BME280;62056;52.130;5.428;2023-11-22T05:52:06;103266.94;;;3.02;94.01
73748;BME280;62056;52.130;5.428;2023-11-22T05:54:33;103265.97;;;3.03;93.99
73748;BME280;62056;52.130;5.428;2023-11-22T05:57:00;103270.22;;;3.04;93.79
73748;BME280;62056;52.130;5.428;2023-11-22T05:59:27;103261.19;;;3.07;93.75
73748;BME280;62056;52.130;5.428;2023-11-22T06:01:53;103267.25;;;3.07;93.71
73748;BME280;62056;52.130;5.428;2023-11-22T06:04:20;103258.38;;;3.08;93.40
73748;BME280;62056;52.130;5.428;2023-11-22T06:06:47;103260.19;;;3.08;92.88
73748;BME280;62056;52.130;5.428;2023-11-22T06:09:14;103273.16;;;3.09;92.96
73748;BME280;62056;52.130;5.428;2023-11-22T06:11:41;103274.78;;;3.10;93.37
73748;BME280;62056;52.130;5.428;2023-11-22T06:14:08;103272.34;;;3.09;93.59
73748;BME280;62056;52.130;5.428;2023-11-22T06:16:35;103268.88;;;3.08;92.73
73748;BME280;62056;52.130;5.428;2023-11-22T06:19:02;103262.81;;;3.08;92.96
73748;BME280;62056;52.130;5.428;2023-11-22T06:21:28;103268.88;;;3.08;92.85
73748;BME280;62056;52.130;5.428;2023-11-22T06:23:56;103271.34;;;3.10;92.45
73748;BME280;62056;52.130;5.428;2023-11-22T06:26:25;103275.78;;;3.09;92.55
73748;BME280;62056;52.130;5.428;2023-11-22T06:28:53;103287.28;;;3.08;93.73
73748;BME280;62056;52.130;5.428;2023-11-22T06:31:22;103298.81;;;3.07;93.00
73748;BME280;62056;52.130;5.428;2023-11-22T06:33:49;103296.00;;;3.09;92.39
73748;BME280;62056;52.130;5.428;2023-11-22T06:36:17;103298.44;;;3.10;92.66
73748;BME280;62056;52.130;5.428;2023-11-22T06:38:45;103295.66;;;3.12;92.86
73748;BME280;62056;52.130;5.428;2023-11-22T06:41:13;103287.75;;;3.12;92.93
73748;BME280;62056;52.130;5.428;2023-11-22T06:43:39;103284.16;;;3.13;93.40
73748;BME280;62056;52.130;5.428;2023-11-22T06:46:06;103274.78;;;3.10;93.44
73748;BME280;62056;52.130;5.428;2023-11-22T06:48:33;103279.22;;;3.10;93.25
73748;BME280;62056;52.130;5.428;2023-11-22T06:51:00;103271.16;;;3.11;93.96
73748;BME280;62056;52.130;5.428;2023-11-22T06:53:27;103269.53;;;3.10;93.73
73748;BME280;62056;52.130;5.428;2023-11-22T06:55:54;103268.53;;;3.11;93.38
73748;BME280;62056;52.130;5.428;2023-11-22T06:58:21;103258.19;;;3.10;94.03
73748;BME280;62056;52.130;5.428;2023-11-22T07:00:48;103260.00;;;3.09;93.34
73748;BME280;62056;52.130;5.428;2023-11-22T07:03:15;103264.47;;;3.09;93.61
73748;BME280;62056;52.130;5.428;2023-11-22T07:05:45;103258.56;;;3.07;93.90
73748;BME280;62056;52.130;5.428;2023-11-22T07:08:12;103263.81;;;3.07;93.58
73748;BME280;62056;52.130;5.428;2023-11-22T07:10:39;103269.72;;;3.09;93.84
73748;BME280;62056;52.130;5.428;2023-11-22T07:13:05;103276.75;;;3.08;93.76
73748;BME280;62056;52.130;5.428;2023-11-22T07:15:33;103284.66;;;3.08;93.94
73748;BME280;62056;52.130;5.428;2023-11-22T07:18:00;103287.28;;;3.08;93.90
73748;BME280;62056;52.130;5.428;2023-11-22T07:20:27;103291.72;;;3.08;93.27
73748;BME280;62056;52.130;5.428;2023-11-22T07:22:54;103286.63;;;3.06;93.64
73748;BME280;62056;52.130;5.428;2023-11-22T07:25:28;103285.50;;;3.09;93.96
73748;BME280;62056;52.130;5.428;2023-11-22T07:27:56;103279.41;;;3.08;94.10
73748;BME280;62056;52.130;5.428;2023-11-22T07:30:22;103274.34;;;3.07;94.01
73748;BME280;62056;52.130;5.428;2023-11-22T07:32:50;103273.97;;;3.10;93.83
73748;BME280;62056;52.130;5.428;2023-11-22T07:35:18;103285.94;;;3.12;94.92
73748;BME280;62056;52.130;5.428;2023-11-22T07:37:47;103278.69;;;3.14;94.10
73748;BME280;62056;52.130;5.428;2023-11-22T07:40:14;103288.50;;;3.20;94.29
73748;BME280;62056;52.130;5.428;2023-11-22T07:42:41;103294.06;;;3.26;94.61
73748;BME280;62056;52.130;5.428;2023-11-22T07:45:09;103292.53;;;3.31;94.57
73748;BME280;62056;52.130;5.428;2023-11-22T07:47:40;103291.81;;;3.37;94.98
73748;BME280;62056;52.130;5.428;2023-11-22T07:50:09;103290.13;;;3.44;95.16
73748;BME280;62056;52.130;5.428;2023-11-22T07:52:36;103286.63;;;3.52;95.15
73748;BME280;62056;52.130;5.428;2023-11-22T07:55:05;103291.81;;;3.60;95.44
73748;BME280;62056;52.130;5.428;2023-11-22T07:57:35;103292.88;;;3.66;95.64
73748;BME280;62056;52.130;5.428;2023-11-22T08:00:02;103297.25;;;3.74;95.75
73748;BME280;62056;52.130;5.428;2023-11-22T08:02:34;103307.88;;;3.80;95.12
73748;BME280;62056;52.130;5.428;2023-11-22T08:05:05;103320.31;;;3.87;95.54
73748;BME280;62056;52.130;5.428;2023-11-22T08:07:38;103327.50;;;3.93;95.50
73748;BME280;62056;52.130;5.428;2023-11-22T08:10:07;103337.13;;;4.00;95.23
73748;BME280;62056;52.130;5.428;2023-11-22T08:12:46;103342.50;;;4.07;95.36
73748;BME280;62056;52.130;5.428;2023-11-22T08:15:14;103350.66;;;4.12;94.79
73748;BME280;62056;52.130;5.428;2023-11-22T08:17:42;103350.13;;;4.17;95.12
73748;BME280;62056;52.130;5.428;2023-11-22T08:20:12;103352.22;;;4.21;94.93
73748;BME280;62056;52.130;5.428;2023-11-22T08:22:41;103348.22;;;4.25;94.18
73748;BME280;62056;52.130;5.428;2023-11-22T08:25:08;103343.22;;;4.31;93.60
73748;BME280;62056;52.130;5.428;2023-11-22T08:27:40;103345.91;;;4.37;94.42
73748;BME280;62056;52.130;5.428;2023-11-22T08:30:09;103351.66;;;4.41;93.72
73748;BME280;62056;52.130;5.428;2023-11-22T08:32:43;103349.31;;;4.46;94.91
73748;BME280;62056;52.130;5.428;2023-11-22T08:35:14;103348.09;;;4.49;93.10
73748;BME280;62056;52.130;5.428;2023-11-22T08:37:42;103352.66;;;4.55;94.44
73748;BME280;62056;52.130;5.428;2023-11-22T08:41:06;103346.44;;;4.62;95.06
73748;BME280;62056;52.130;5.428;2023-11-22T08:43:37;103340.00;;;4.65;94.96
73748;BME280;62056;52.130;5.428;2023-11-22T08:46:04;103337.59;;;4.70;95.18
73748;BME280;62056;52.130;5.428;2023-11-22T08:48:40;103338.25;;;4.72;92.68
73748;BME280;62056;52.130;5.428;2023-11-22T08:51:09;103343.59;;;4.79;93.50
73748;BME280;62056;52.130;5.428;2023-11-22T08:53:37;103345.69;;;4.83;92.81
73748;BME280;62056;52.130;5.428;2023-11-22T08:56:04;103339.03;;;4.88;92.05
73748;BME280;62056;52.130;5.428;2023-11-22T08:58:32;103337.44;;;4.93;92.54
73748;BME280;62056;52.130;5.428;2023-11-22T09:01:06;103341.53;;;4.96;92.19
73748;BME280;62056;52.130;5.428;2023-11-22T09:03:34;103334.88;;;5.00;91.98
73748;BME280;62056;52.130;5.428;2023-11-22T09:06:01;103338.78;;;5.04;91.86
73748;BME280;62056;52.130;5.428;2023-11-22T09:08:29;103334.13;;;5.06;90.95
73748;BME280;62056;52.130;5.428;2023-11-22T09:14:42;103342.00;;;5.21;92.20
73748;BME280;62056;52.130;5.428;2023-11-22T09:17:09;103343.25;;;5.25;97.18
73748;BME280;62056;52.130;5.428;2023-11-22T09:20:02;103332.91;;;5.23;93.74
73748;BME280;62056;52.130;5.428;2023-11-22T09:22:34;103337.41;;;5.30;96.51
73748;BME280;62056;52.130;5.428;2023-11-22T09:25:15;103347.41;;;5.34;94.63
73748;BME280;62056;52.130;5.428;2023-11-22T09:27:43;103354.16;;;5.43;94.95
73748;BME280;62056;52.130;5.428;2023-11-22T09:33:15;103362.56;;;5.54;93.88
73748;BME280;62056;52.130;5.428;2023-11-22T09:35:47;103354.06;;;5.58;95.60
73748;BME280;62056;52.130;5.428;2023-11-22T09:38:15;103349.44;;;5.60;93.21
73748;BME280;62056;52.130;5.428;2023-11-22T09:41:20;103357.22;;;5.68;91.18
73748;BME280;62056;52.130;5.428;2023-11-22T09:43:47;103345.47;;;5.71;92.82
73748;BME280;62056;52.130;5.428;2023-11-22T09:46:16;103346.72;;;5.75;91.64
73748;BME280;62056;52.130;5.428;2023-11-22T09:48:47;103342.88;;;5.78;91.22
73748;BME280;62056;52.130;5.428;2023-11-22T09:51:21;103349.22;;;5.83;92.18
73748;BME280;62056;52.130;5.428;2023-11-22T09:53:58;103352.25;;;5.87;90.56
73748;BME280;62056;52.130;5.428;2023-11-22T09:56:29;103348.03;;;5.93;91.98
73748;BME280;62056;52.130;5.428;2023-11-22T09:58:58;103350.13;;;5.97;92.43
73748;BME280;62056;52.130;5.428;2023-11-22T10:01:44;103348.91;;;6.00;91.59
73748;BME280;62056;52.130;5.428;2023-11-22T10:04:11;103345.94;;;6.10;93.53
73748;BME280;62056;52.130;5.428;2023-11-22T10:06:39;103345.34;;;6.14;96.92
73748;BME280;62056;52.130;5.428;2023-11-22T10:09:07;103330.91;;;6.10;93.35
73748;BME280;62056;52.130;5.428;2023-11-22T10:11:35;103328.31;;;6.17;95.10
73748;BME280;62056;52.130;5.428;2023-11-22T10:14:09;103327.47;;;6.16;91.78
73748;BME280;62056;52.130;5.428;2023-11-22T10:16:36;103315.72;;;6.19;91.20
73748;BME280;62056;52.130;5.428;2023-11-22T10:19:21;103314.09;;;6.24;92.83
73748;BME280;62056;52.130;5.428;2023-11-22T10:22:05;103334.03;;;6.27;90.42
73748;BME280;62056;52.130;5.428;2023-11-22T10:24:35;103325.31;;;6.33;93.28
73748;BME280;62056;52.130;5.428;2023-11-22T10:27:03;103319.47;;;6.38;94.78
73748;BME280;62056;52.130;5.428;2023-11-22T10:29:30;103323.91;;;6.37;93.51
73748;BME280;62056;52.130;5.428;2023-11-22T10:31:59;103320.88;;;6.40;91.99
73748;BME280;62056;52.130;5.428;2023-11-22T10:34:29;103317.03;;;6.43;91.69
73748;BME280;62056;52.130;5.428;2023-11-22T10:36:56;103300.38;;;6.49;92.75
73748;BME280;62056;52.130;5.428;2023-11-22T10:39:24;103302.03;;;6.50;90.96
73748;BME280;62056;52.130;5.428;2023-11-22T10:42:07;103296.34;;;6.53;89.52
73748;BME280;62056;52.130;5.428;2023-11-22T10:44:35;103298.78;;;6.61;91.67
73748;BME280;62056;52.130;5.428;2023-11-22T10:47:06;103291.91;;;6.67;93.94
73748;BME280;62056;52.130;5.428;2023-11-22T10:49:34;103283.97;;;6.67;92.76
73748;BME280;62056;52.130;5.428;2023-11-22T10:52:07;103283.13;;;6.66;91.66
73748;BME280;62056;52.130;5.428;2023-11-22T10:54:55;103280.09;;;6.69;92.89
73748;BME280;62056;52.130;5.428;2023-11-22T10:57:31;103284.78;;;6.74;93.78
73748;BME280;62056;52.130;5.428;2023-11-22T11:00:03;103283.78;;;6.75;95.28
73748;BME280;62056;52.130;5.428;2023-11-22T11:02:40;103290.28;;;6.73;91.13
73748;BME280;62056;52.130;5.428;2023-11-22T11:05:16;103292.34;;;6.77;91.53
73748;BME280;62056;52.130;5.428;2023-11-22T11:07:52;103286.44;;;6.82;93.37
73748;BME280;62056;52.130;5.428;2023-11-22T11:10:41;103283.19;;;6.86;92.67
73748;BME280;62056;52.130;5.428;2023-11-22T11:13:09;103268.72;;;6.82;89.48
73748;BME280;62056;52.130;5.428;2023-11-22T11:15:40;103246.56;;;6.90;93.30
73748;BME280;62056;52.130;5.428;2023-11-22T11:18:13;103234.16;;;6.97;93.53
73748;BME280;62056;52.130;5.428;2023-11-22T11:20:57;103228.66;;;7.05;93.77
73748;BME280;62056;52.130;5.428;2023-11-22T11:23:26;103222.13;;;7.08;91.69
73748;BME280;62056;52.130;5.428;2023-11-22T11:26:15;103213.78;;;7.18;93.20
73748;BME280;62056;52.130;5.428;2023-11-22T11:28:47;103215.63;;;7.17;88.47
73748;BME280;62056;52.130;5.428;2023-11-22T11:31:16;103207.25;;;7.27;92.86
73748;BME280;62056;52.130;5.428;2023-11-22T11:36:29;103195.06;;;7.26;88.91
73748;BME280;62056;52.130;5.428;2023-11-22T11:39:06;103188.97;;;7.25;83.57
73748;BME280;62056;52.130;5.428;2023-11-22T11:41:42;103180.78;;;7.40;92.99
73748;BME280;62056;52.130;5.428;2023-11-22T11:44:10;103179.97;;;7.33;89.77
73748;BME280;62056;52.130;5.428;2023-11-22T11:46:39;103175.72;;;7.32;87.02
73748;BME280;62056;52.130;5.428;2023-11-22T11:49:10;103184.88;;;7.36;88.28
73748;BME280;62056;52.130;5.428;2023-11-22T11:51:39;103186.69;;;7.42;93.48
73748;BME280;62056;52.130;5.428;2023-11-22T11:54:21;103183.22;;;7.42;93.80
73748;BME280;62056;52.130;5.428;2023-11-22T11:56:48;103188.72;;;7.40;93.78
73748;BME280;62056;52.130;5.428;2023-11-22T11:59:21;103185.44;;;7.45;94.22
73748;BME280;62056;52.130;5.428;2023-11-22T12:01:54;103182.63;;;7.40;94.54
73748;BME280;62056;52.130;5.428;2023-11-22T12:04:23;103180.81;;;7.34;93.70
73748;BME280;62056;52.130;5.428;2023-11-22T12:06:50;103182.84;;;7.32;93.36
73748;BME280;62056;52.130;5.428;2023-11-22T12:09:26;103173.06;;;7.32;92.54
73748;BME280;62056;52.130;5.428;2023-11-22T12:11:59;103177.94;;;7.35;93.12
73748;BME280;62056;52.130;5.428;2023-11-22T12:14:51;103168.56;;;7.39;93.31
73748;BME280;62056;52.130;5.428;2023-11-22T12:17:19;103171.63;;;7.36;92.09
73748;BME280;62056;52.130;5.428;2023-11-22T12:19:47;103169.38;;;7.40;92.51
73748;BME280;62056;52.130;5.428;2023-11-22T12:22:15;103172.63;;;7.42;92.19
73748;BME280;62056;52.130;5.428;2023-11-22T12:24:43;103159.16;;;7.43;92.40
73748;BME280;62056;52.130;5.428;2023-11-22T12:27:10;103160.22;;;7.42;90.13
73748;BME280;62056;52.130;5.428;2023-11-22T12:29:37;103155.91;;;7.55;91.68
73748;BME280;62056;52.130;5.428;2023-11-22T12:32:13;103157.75;;;7.54;91.73
73748;BME280;62056;52.130;5.428;2023-11-22T12:34:44;103156.31;;;7.52;91.09
73748;BME280;62056;52.130;5.428;2023-11-22T12:37:10;103147.56;;;7.51;89.43
73748;BME280;62056;52.130;5.428;2023-11-22T12:39:40;103149.38;;;7.57;91.35
73748;BME280;62056;52.130;5.428;2023-11-22T12:42:08;103153.03;;;7.56;88.73
73748;BME280;62056;52.130;5.428;2023-11-22T12:44:52;103137.72;;;7.58;88.61
73748;BME280;62056;52.130;5.428;2023-11-22T12:47:34;103144.63;;;7.66;89.96
73748;BME280;62056;52.130;5.428;2023-11-22T12:50:33;103135.84;;;7.72;89.87
73748;BME280;62056;52.130;5.428;2023-11-22T12:53:11;103129.78;;;7.65;90.32
73748;BME280;62056;52.130;5.428;2023-11-22T12:55:42;103139.31;;;7.73;90.69
73748;BME280;62056;52.130;5.428;2023-11-22T12:58:13;103131.38;;;7.73;90.42
73748;BME280;62056;52.130;5.428;2023-11-22T13:00:42;103121.22;;;7.69;90.17
73748;BME280;62056;52.130;5.428;2023-11-22T13:03:10;103115.72;;;7.71;87.26
73748;BME280;62056;52.130;5.428;2023-11-22T13:05:55;103115.06;;;7.76;87.22
73748;BME280;62056;52.130;5.428;2023-11-22T13:08:23;103101.56;;;7.84;89.21
73748;BME280;62056;52.130;5.428;2023-11-22T13:11:13;103093.88;;;7.76;86.42
73748;BME280;62056;52.130;5.428;2023-11-22T13:13:40;103096.28;;;7.84;89.09
73748;BME280;62056;52.130;5.428;2023-11-22T13:16:07;103081.41;;;7.83;89.65
73748;BME280;62056;52.130;5.428;2023-11-22T13:18:35;103081.19;;;7.84;89.66
73748;BME280;62056;52.130;5.428;2023-11-22T13:21:15;103075.69;;;7.86;89.51